createdAt,value
2022-08-17T00:01:27.138Z,44.90
2022-08-17T00:03:54.291Z,44.90
2022-08-17T00:06:24.299Z,44.90
2022-08-17T00:08:57.068Z,44.90
2022-08-17T00:11:36.430Z,44.90
2022-08-17T00:14:09.708Z,44.90
2022-08-17T00:16:56.565Z,44.90
2022-08-17T00:19:25.224Z,44.90
2022-08-17T00:22:32.814Z,44.90
2022-08-17T00:24:43.012Z,44.90
2022-08-17T00:27:09.162Z,45.00
2022-08-17T00:29:35.262Z,45.00
2022-08-17T00:33:11.611Z,45.00
2022-08-17T00:34:48.893Z,44.90
2022-08-17T00:37:15.043Z,45.00
2022-08-17T00:39:41.211Z,44.90
2022-08-17T00:42:16.429Z,45.00
2022-08-17T00:44:42.598Z,45.00
2022-08-17T00:47:08.817Z,45.00
2022-08-17T00:49:34.914Z,44.90
2022-08-17T00:52:14.590Z,45.00
2022-08-17T00:54:44.113Z,45.00
2022-08-17T00:57:22.039Z,45.00
2022-08-17T01:00:02.588Z,45.00
2022-08-17T01:02:34.335Z,44.90
2022-08-17T01:05:09.539Z,45.00
2022-08-17T01:07:38.109Z,45.00
2022-08-17T01:10:08.551Z,45.00
2022-08-17T01:12:54.973Z,45.00
2022-08-17T01:15:21.139Z,45.00
2022-08-17T01:17:47.614Z,45.00
2022-08-17T01:20:14.525Z,45.10
2022-08-17T01:22:40.643Z,45.00
2022-08-17T01:25:08.445Z,45.10
2022-08-17T01:27:36.933Z,45.00
2022-08-17T01:30:56.671Z,44.90
2022-08-17T01:32:54.655Z,45.00
2022-08-17T01:35:20.763Z,45.00
2022-08-17T01:37:47.083Z,45.00
2022-08-17T01:40:29.797Z,45.00
2022-08-17T01:43:00.821Z,45.00
2022-08-17T01:45:32.415Z,45.00
2022-08-17T01:47:59.258Z,45.00
2022-08-17T01:50:29.700Z,45.00
2022-08-17T01:53:02.258Z,45.00
2022-08-17T01:55:50.806Z,45.00
2022-08-17T01:58:17.989Z,45.00
2022-08-17T02:00:59.772Z,45.00
2022-08-17T02:03:28.389Z,45.00
2022-08-17T02:05:54.727Z,45.00
2022-08-17T02:08:38.725Z,45.00
2022-08-17T02:11:15.074Z,45.00
2022-08-17T02:13:42.578Z,45.00
2022-08-17T02:16:08.765Z,45.10
2022-08-17T02:18:34.892Z,45.00
2022-08-17T02:21:01.167Z,45.60
2022-08-17T02:23:31.531Z,45.00
2022-08-17T02:25:59.637Z,45.00
2022-08-17T02:28:27.697Z,45.00
2022-08-17T02:31:01.866Z,45.00
2022-08-17T02:33:42.270Z,45.00
2022-08-17T02:36:11.832Z,45.10
2022-08-17T02:38:39.210Z,45.10
2022-08-17T02:41:05.445Z,45.00
2022-08-17T02:43:32.306Z,45.10
2022-08-17T02:45:58.397Z,45.00
2022-08-17T02:48:30.884Z,45.10
2022-08-17T02:50:58.503Z,45.10
2022-08-17T02:53:24.708Z,45.10
2022-08-17T02:55:52.122Z,45.00
2022-08-17T02:58:34.706Z,45.00
2022-08-17T03:01:04.097Z,45.10
2022-08-17T03:03:30.244Z,45.00
2022-08-17T03:05:56.354Z,45.00
2022-08-17T03:08:22.718Z,45.00
2022-08-17T03:10:49.720Z,45.00
2022-08-17T03:13:16.209Z,45.10
2022-08-17T03:15:44.599Z,45.10
2022-08-17T03:18:19.198Z,45.10
2022-08-17T03:20:55.494Z,45.10
2022-08-17T03:23:24.143Z,45.10
2022-08-17T03:25:53.181Z,45.00
2022-08-17T03:28:20.752Z,45.10
2022-08-17T03:30:46.896Z,45.10
2022-08-17T03:33:13.206Z,45.10
2022-08-17T03:35:40.515Z,45.00
2022-08-17T03:38:11.400Z,45.10
2022-08-17T03:40:56.329Z,45.20
2022-08-17T03:43:27.663Z,45.10
2022-08-17T03:46:34.594Z,45.10
2022-08-17T03:49:17.283Z,45.10
2022-08-17T03:52:01.966Z,45.10
2022-08-17T03:54:46.645Z,45.10
2022-08-17T03:57:12.926Z,45.20
2022-08-17T03:59:40.102Z,45.10
2022-08-17T04:02:10.767Z,45.10
2022-08-17T04:04:37.883Z,45.10
2022-08-17T04:07:05.559Z,45.20
2022-08-17T04:09:31.753Z,45.10
2022-08-17T04:12:02.406Z,45.10
2022-08-17T04:14:35.513Z,45.10
2022-08-17T04:17:05.716Z,45.10
2022-08-17T04:19:31.899Z,45.10
2022-08-17T04:21:58.009Z,45.10
2022-08-17T04:24:25.670Z,45.10
2022-08-17T04:26:53.903Z,45.20
2022-08-17T04:29:21.519Z,45.10
2022-08-17T04:31:47.688Z,45.10
2022-08-17T04:34:13.882Z,45.10
2022-08-17T04:36:39.969Z,45.00
2022-08-17T04:39:16.343Z,45.00
2022-08-17T04:42:00.863Z,45.00
2022-08-17T04:44:37.050Z,45.00
2022-08-17T04:47:04.688Z,45.00
2022-08-17T04:49:31.922Z,45.00
2022-08-17T04:52:01.233Z,45.10
2022-08-17T04:54:30.764Z,45.10
2022-08-17T04:56:56.864Z,45.20
2022-08-17T04:59:22.974Z,45.10
2022-08-17T05:01:50.736Z,45.30
2022-08-17T05:04:34.361Z,45.30
2022-08-17T05:07:02.548Z,45.20
2022-08-17T05:09:28.665Z,45.30
2022-08-17T05:11:55.340Z,45.40
2022-08-17T05:14:22.508Z,45.40
2022-08-17T05:17:01.127Z,45.40
2022-08-17T05:19:27.437Z,45.40
2022-08-17T05:21:53.628Z,45.40
2022-08-17T05:24:43.083Z,45.40
2022-08-17T05:27:06.150Z,45.40
2022-08-17T05:29:35.144Z,45.40
2022-08-17T05:32:38.642Z,45.40
2022-08-17T05:35:00.859Z,45.40
2022-08-17T05:37:27.467Z,45.40
2022-08-17T05:39:53.880Z,45.40
2022-08-17T05:42:20.835Z,45.50
2022-08-17T05:44:46.987Z,45.40
2022-08-17T05:47:13.231Z,45.40
2022-08-17T05:49:39.569Z,45.40
2022-08-17T05:52:13.429Z,45.30
2022-08-17T05:55:09.429Z,45.40
2022-08-17T05:58:03.954Z,45.30
2022-08-17T06:00:49.809Z,45.40
2022-08-17T06:03:53.132Z,45.30
2022-08-17T06:06:31.379Z,45.30
2022-08-17T06:09:07.141Z,45.40
2022-08-17T06:11:38.426Z,45.40
2022-08-17T06:14:40.562Z,45.40
2022-08-17T06:17:12.705Z,45.40
2022-08-17T06:19:50.570Z,45.40
2022-08-17T06:22:21.217Z,45.40
2022-08-17T06:25:00.374Z,45.40
2022-08-17T06:27:44.648Z,45.40
2022-08-17T06:30:15.838Z,45.40
2022-08-17T06:32:44.530Z,45.50
2022-08-17T06:35:15.346Z,45.50
2022-08-17T06:38:17.333Z,45.50
2022-08-17T06:41:37.956Z,45.50
2022-08-17T06:44:43.513Z,45.50
2022-08-17T06:47:28.786Z,45.50
2022-08-17T06:50:29.212Z,45.50
2022-08-17T06:53:03.465Z,45.50
2022-08-17T06:55:44.568Z,45.50
2022-08-17T06:58:15.838Z,45.50
2022-08-17T07:00:46.625Z,45.50
2022-08-17T07:03:32.725Z,45.50
2022-08-17T07:06:04.736Z,45.50
2022-08-17T07:08:37.401Z,45.50
2022-08-17T07:11:08.908Z,45.40
2022-08-17T07:13:56.382Z,45.50
2022-08-17T07:16:33.000Z,45.50
2022-08-17T07:18:59.522Z,45.50
2022-08-17T07:21:54.310Z,45.50
2022-08-17T07:24:58.551Z,45.50
2022-08-17T07:27:30.863Z,45.50
2022-08-17T07:30:11.260Z,45.50
2022-08-17T07:32:48.191Z,45.50
2022-08-17T07:35:41.159Z,45.50
2022-08-17T07:38:25.913Z,45.50
2022-08-17T07:41:01.827Z,45.40
2022-08-17T07:43:38.677Z,45.40
2022-08-17T07:46:34.740Z,45.40
2022-08-17T07:49:02.711Z,45.40
2022-08-17T07:51:40.113Z,45.30
2022-08-17T07:54:15.545Z,45.20
2022-08-17T07:56:53.598Z,45.20
2022-08-17T07:59:27.196Z,45.20
2022-08-17T08:02:04.019Z,45.20
2022-08-17T08:04:59.828Z,45.10
2022-08-17T08:07:24.606Z,45.10
2022-08-17T08:10:03.299Z,45.00
2022-08-17T08:12:48.508Z,45.10
2022-08-17T08:15:23.589Z,45.70
2022-08-17T08:17:59.825Z,45.00
2022-08-17T08:20:53.339Z,45.00
2022-08-17T08:23:32.942Z,45.00
2022-08-17T08:26:25.882Z,45.00
2022-08-17T08:29:22.144Z,45.10
2022-08-17T08:32:19.802Z,45.00
2022-08-17T08:35:26.194Z,45.00
2022-08-17T08:38:10.454Z,45.00
2022-08-17T08:40:51.754Z,45.00
2022-08-17T08:43:42.926Z,45.00
2022-08-17T08:46:43.429Z,45.00
2022-08-17T08:50:03.515Z,45.00
2022-08-17T08:52:51.064Z,45.00
2022-08-17T08:55:40.853Z,44.80
2022-08-17T08:58:31.836Z,44.90
2022-08-17T09:01:17.290Z,44.90
2022-08-17T09:04:25.211Z,44.90
2022-08-17T09:07:10.466Z,44.80
2022-08-17T09:09:48.240Z,44.80
2022-08-17T09:12:29.635Z,44.80
2022-08-17T09:15:13.125Z,44.80
2022-08-17T09:18:03.719Z,44.70
2022-08-17T09:21:13.308Z,44.80
2022-08-17T09:23:58.877Z,44.70
2022-08-17T09:26:37.152Z,44.60
2022-08-17T09:29:08.079Z,44.70
2022-08-17T09:31:48.154Z,44.60
2022-08-17T09:34:29.619Z,44.60
2022-08-17T09:37:17.546Z,44.60
2022-08-17T09:40:07.922Z,44.70
2022-08-17T09:42:47.980Z,44.70
2022-08-17T09:45:29.365Z,44.60
2022-08-17T09:48:05.768Z,44.70
2022-08-17T09:51:07.133Z,44.70
2022-08-17T09:53:36.791Z,44.60
2022-08-17T09:56:19.944Z,44.60
2022-08-17T09:59:20.935Z,44.70
2022-08-17T10:02:15.572Z,44.60
2022-08-17T10:05:01.200Z,44.60
2022-08-17T10:07:41.492Z,44.60
2022-08-17T10:10:29.175Z,44.60
2022-08-17T10:13:14.675Z,44.60
2022-08-17T10:16:22.552Z,44.50
2022-08-17T10:19:13.482Z,44.50
2022-08-17T10:22:26.427Z,44.50
2022-08-17T10:25:22.501Z,44.40
2022-08-17T10:28:03.939Z,44.40
2022-08-17T10:30:32.147Z,44.30
2022-08-17T10:33:13.736Z,44.40
2022-08-17T10:36:10.553Z,44.30
2022-08-17T10:38:47.193Z,44.30
2022-08-17T10:41:28.440Z,44.30
2022-08-17T10:44:40.051Z,44.30
2022-08-17T10:47:14.756Z,44.30
2022-08-17T10:49:48.841Z,44.30
2022-08-17T10:52:27.450Z,44.30
2022-08-17T10:54:58.780Z,44.20
2022-08-17T10:57:31.077Z,44.20
2022-08-17T10:59:59.627Z,44.20
2022-08-17T11:02:40.044Z,44.10
2022-08-17T11:05:44.267Z,44.10
2022-08-17T11:08:41.835Z,44.10
2022-08-17T11:11:46.679Z,44.00
2022-08-17T11:14:49.056Z,44.00
2022-08-17T11:17:26.858Z,44.00
2022-08-17T11:20:07.087Z,44.00
2022-08-17T11:22:42.093Z,44.00
2022-08-17T11:25:17.457Z,43.90
2022-08-17T11:27:53.062Z,43.80
2022-08-17T11:30:44.362Z,43.70
2022-08-17T11:33:29.083Z,43.70
2022-08-17T11:36:11.640Z,43.60
2022-08-17T11:38:57.363Z,43.60
2022-08-17T11:41:45.491Z,43.60
2022-08-17T11:44:37.041Z,43.60
2022-08-17T11:47:37.257Z,43.50
2022-08-17T11:50:58.855Z,43.50
2022-08-17T11:53:37.538Z,43.40
2022-08-17T11:56:10.861Z,43.50
2022-08-17T11:58:40.870Z,43.50
2022-08-17T12:01:56.398Z,43.40
2022-08-17T12:04:29.438Z,44.10
2022-08-17T12:07:19.885Z,43.40
2022-08-17T12:09:49.825Z,43.40
2022-08-17T12:12:16.945Z,43.50
2022-08-17T12:15:09.577Z,43.40
2022-08-17T12:17:40.838Z,43.40
2022-08-17T12:20:14.798Z,43.30
2022-08-17T12:23:07.534Z,43.30
2022-08-17T12:25:56.965Z,43.30
2022-08-17T12:28:30.293Z,43.30
2022-08-17T12:31:11.255Z,43.30
2022-08-17T12:33:43.101Z,43.20
2022-08-17T12:36:14.416Z,43.20
2022-08-17T12:38:50.419Z,43.20
2022-08-17T12:41:38.270Z,43.10
2022-08-17T12:44:08.937Z,43.10
2022-08-17T12:47:06.945Z,43.10
2022-08-17T12:49:39.120Z,43.10
2022-08-17T12:52:19.997Z,43.10
2022-08-17T12:55:01.326Z,43.00
2022-08-17T12:57:43.713Z,43.00
2022-08-17T13:00:10.294Z,43.00
2022-08-17T13:02:51.690Z,43.00
2022-08-17T13:05:27.006Z,43.00
2022-08-17T13:07:54.994Z,43.00
2022-08-17T13:10:32.787Z,43.00
2022-08-17T13:13:06.375Z,43.10
2022-08-17T13:15:44.975Z,43.00
2022-08-17T13:18:38.254Z,43.00
2022-08-17T13:21:27.107Z,43.00
2022-08-17T13:24:14.310Z,43.00
2022-08-17T13:26:43.171Z,43.00
2022-08-17T13:29:23.880Z,43.00
2022-08-17T13:32:02.747Z,42.90
2022-08-17T13:34:35.639Z,42.90
2022-08-17T13:37:31.928Z,42.90
2022-08-17T13:40:07.392Z,42.90
2022-08-17T13:42:51.780Z,42.80
2022-08-17T13:45:36.094Z,42.80
2022-08-17T13:48:13.618Z,42.70
2022-08-17T13:51:05.976Z,42.60
2022-08-17T13:53:35.124Z,42.60
2022-08-17T13:56:33.196Z,42.60
2022-08-17T13:59:07.316Z,42.50
2022-08-17T14:01:53.460Z,42.60
2022-08-17T14:04:27.356Z,42.50
2022-08-17T14:06:58.387Z,42.50
2022-08-17T14:09:37.162Z,42.40
2022-08-17T14:12:10.687Z,42.40
2022-08-17T14:14:37.386Z,42.50
2022-08-17T14:17:04.713Z,42.40
2022-08-17T14:19:30.977Z,42.30
2022-08-17T14:21:58.385Z,43.00
2022-08-17T14:24:31.735Z,42.90
2022-08-17T14:26:59.535Z,42.30
2022-08-17T14:29:28.673Z,42.30
2022-08-17T14:31:55.787Z,42.20
2022-08-17T14:34:23.752Z,42.20
2022-08-17T14:36:50.518Z,42.10
2022-08-17T14:39:17.644Z,42.10
2022-08-17T14:41:43.939Z,42.10
2022-08-17T14:44:11.792Z,42.00
2022-08-17T14:46:40.265Z,42.00
2022-08-17T14:49:07.911Z,42.00
2022-08-17T14:51:34.443Z,42.00
2022-08-17T14:54:00.581Z,42.00
2022-08-17T14:56:27.335Z,41.90
2022-08-17T14:58:57.829Z,41.90
2022-08-17T15:01:25.920Z,41.90
2022-08-17T15:03:53.343Z,41.90
2022-08-17T15:06:21.625Z,41.90
2022-08-17T15:08:50.284Z,41.90
2022-08-17T15:11:16.992Z,41.80
2022-08-17T15:13:53.071Z,41.80
2022-08-17T15:16:19.864Z,41.80
2022-08-17T15:18:46.019Z,41.70
2022-08-17T15:21:14.071Z,41.70
2022-08-17T15:23:40.187Z,41.70
2022-08-17T15:26:10.566Z,41.70
2022-08-17T15:28:37.195Z,41.70
2022-08-17T15:31:05.107Z,41.70
2022-08-17T15:33:33.050Z,41.60
2022-08-17T15:36:02.003Z,41.60
2022-08-17T15:38:30.088Z,41.60
2022-08-17T15:40:57.778Z,41.50
2022-08-17T15:43:28.310Z,41.50
2022-08-17T15:46:00.684Z,41.50
2022-08-17T15:48:40.564Z,41.50
2022-08-17T15:51:24.063Z,41.50
2022-08-17T15:54:04.431Z,41.50
2022-08-17T15:56:45.937Z,41.50
2022-08-17T15:59:12.249Z,41.50
2022-08-17T16:03:01.129Z,41.50
2022-08-17T16:04:30.401Z,41.50
2022-08-17T16:06:57.925Z,41.50
2022-08-17T16:09:24.069Z,41.40
2022-08-17T16:11:55.078Z,41.50
2022-08-17T16:14:24.239Z,41.50
2022-08-17T16:16:50.633Z,41.40
2022-08-17T16:19:16.811Z,41.40
2022-08-17T16:21:43.405Z,41.40
2022-08-17T16:24:13.344Z,41.40
2022-08-17T16:26:39.975Z,41.40
2022-08-17T16:29:06.598Z,41.40
2022-08-17T16:31:35.396Z,41.40
2022-08-17T16:34:17.744Z,41.40
2022-08-17T16:36:51.854Z,41.40
2022-08-17T16:39:23.194Z,41.40
2022-08-17T16:41:49.662Z,41.40
2022-08-17T16:44:18.585Z,41.40
2022-08-17T16:46:46.578Z,41.40
2022-08-17T16:49:13.626Z,41.40
2022-08-17T16:52:01.032Z,41.50
2022-08-17T16:54:27.167Z,41.50
2022-08-17T16:56:53.268Z,42.20
2022-08-17T16:59:30.396Z,41.50
2022-08-17T17:02:04.143Z,41.50
2022-08-17T17:04:35.101Z,41.50
2022-08-17T17:07:33.258Z,41.50
2022-08-17T17:10:06.938Z,41.50
2022-08-17T17:13:02.498Z,41.60
2022-08-17T17:15:22.374Z,41.60
2022-08-17T17:17:51.211Z,41.60
2022-08-17T17:20:24.896Z,41.60
2022-08-17T17:23:14.035Z,41.60
2022-08-17T17:25:58.610Z,41.60
2022-08-17T17:28:45.605Z,41.60
2022-08-17T17:31:18.549Z,41.60
2022-08-17T17:33:50.172Z,41.60
2022-08-17T17:36:49.282Z,41.60
2022-08-17T17:39:35.697Z,41.60
2022-08-17T17:42:10.687Z,41.60
2022-08-17T17:44:46.170Z,41.60
2022-08-17T17:47:15.829Z,41.60
2022-08-17T17:49:45.347Z,41.60
2022-08-17T17:52:22.289Z,41.60
2022-08-17T17:55:16.142Z,41.60
2022-08-17T17:58:21.682Z,41.60
2022-08-17T18:01:08.669Z,41.60
2022-08-17T18:04:17.540Z,41.50
2022-08-17T18:07:11.612Z,41.60
2022-08-17T18:10:02.814Z,41.60
2022-08-17T18:13:05.974Z,41.60
2022-08-17T18:15:39.737Z,41.60
2022-08-17T18:18:14.624Z,41.60
2022-08-17T18:20:53.470Z,41.50
2022-08-17T18:23:24.346Z,41.50
2022-08-17T18:25:55.131Z,41.60
2022-08-17T18:28:40.211Z,41.50
2022-08-17T18:31:17.417Z,41.50
2022-08-17T18:33:53.587Z,41.60
2022-08-17T18:36:39.922Z,41.60
2022-08-17T18:39:14.317Z,41.60
2022-08-17T18:41:43.797Z,41.50
2022-08-17T18:44:22.191Z,41.60
2022-08-17T18:47:06.355Z,41.50
2022-08-17T18:49:32.581Z,41.50
2022-08-17T18:52:13.651Z,41.40
2022-08-17T18:54:43.709Z,41.40
2022-08-17T18:57:10.715Z,41.40
2022-08-17T18:59:47.678Z,41.40
2022-08-17T19:02:19.450Z,41.40
2022-08-17T19:04:58.963Z,41.40
2022-08-17T19:07:37.652Z,41.40
2022-08-17T19:10:11.242Z,41.40
2022-08-17T19:12:52.483Z,41.30
2022-08-17T19:15:29.115Z,41.40
2022-08-17T19:18:13.332Z,41.40
2022-08-17T19:21:07.966Z,41.40
2022-08-17T19:23:53.848Z,41.40
2022-08-17T19:26:54.671Z,41.50
2022-08-17T19:29:22.221Z,41.40
2022-08-17T19:31:48.922Z,41.40
2022-08-17T19:34:17.354Z,41.40
2022-08-17T19:37:06.918Z,41.40
2022-08-17T19:39:48.872Z,41.50
2022-08-17T19:42:33.824Z,41.40
2022-08-17T19:45:16.019Z,41.40
2022-08-17T19:47:58.566Z,41.40
2022-08-17T19:51:04.479Z,41.50
2022-08-17T19:54:03.862Z,41.50
2022-08-17T19:56:47.638Z,41.50
2022-08-17T19:59:35.908Z,41.50
2022-08-17T20:02:36.851Z,41.50
2022-08-17T20:05:20.618Z,41.50
2022-08-17T20:08:00.197Z,41.40
2022-08-17T20:10:44.515Z,41.50
2022-08-17T20:13:33.497Z,41.50
2022-08-17T20:16:01.556Z,41.50
2022-08-17T20:18:46.068Z,41.40
2022-08-17T20:21:30.437Z,41.40
2022-08-17T20:24:10.558Z,41.50
2022-08-17T20:27:17.784Z,42.20
2022-08-17T20:30:05.890Z,41.50
2022-08-17T20:32:51.278Z,41.50
2022-08-17T20:35:27.715Z,41.50
2022-08-17T20:38:06.851Z,41.50
2022-08-17T20:40:56.736Z,41.50
2022-08-17T20:43:36.365Z,41.50
2022-08-17T20:46:39.852Z,41.50
2022-08-17T20:49:51.490Z,41.50
2022-08-17T20:52:40.660Z,41.50
2022-08-17T20:55:07.085Z,41.60
2022-08-17T20:57:36.235Z,41.50
2022-08-17T21:00:32.534Z,41.60
2022-08-17T21:03:23.552Z,41.50
2022-08-17T21:06:15.336Z,41.50
2022-08-17T21:08:57.110Z,41.50
2022-08-17T21:11:56.989Z,41.60
2022-08-17T21:14:59.041Z,41.60
2022-08-17T21:17:39.609Z,41.50
2022-08-17T21:20:24.628Z,41.50
2022-08-17T21:23:06.655Z,41.50
2022-08-17T21:25:54.467Z,41.50
2022-08-17T21:29:01.039Z,41.60
2022-08-17T21:31:35.372Z,41.50
2022-08-17T21:34:20.463Z,41.50
2022-08-17T21:36:47.853Z,41.40
2022-08-17T21:39:18.807Z,41.40
2022-08-17T21:41:57.038Z,41.40
2022-08-17T21:44:32.041Z,41.40
2022-08-17T21:47:20.627Z,41.40
2022-08-17T21:49:47.279Z,41.30
2022-08-17T21:52:16.875Z,41.30
2022-08-17T21:54:51.306Z,41.40
2022-08-17T21:57:21.539Z,41.30
2022-08-17T21:59:57.816Z,41.30
2022-08-17T22:02:33.323Z,41.30
2022-08-17T22:05:01.185Z,41.30
2022-08-17T22:07:45.101Z,41.30
2022-08-17T22:10:29.954Z,41.30
2022-08-17T22:13:05.447Z,41.30
2022-08-17T22:15:46.119Z,41.40
2022-08-17T22:18:30.513Z,41.40
2022-08-17T22:21:01.283Z,41.40
2022-08-17T22:23:48.945Z,41.50
2022-08-17T22:26:18.123Z,41.50
2022-08-17T22:28:52.097Z,41.50
2022-08-17T22:31:25.489Z,41.50
2022-08-17T22:34:09.272Z,41.50
2022-08-17T22:36:38.328Z,41.50
2022-08-17T22:39:09.926Z,41.50
2022-08-17T22:42:00.196Z,41.50
2022-08-17T22:44:35.796Z,41.60
2022-08-17T22:47:23.350Z,41.60
2022-08-17T22:50:01.745Z,41.60
2022-08-17T22:52:33.822Z,41.60
2022-08-17T22:55:34.426Z,41.60
2022-08-17T22:58:20.403Z,41.60
2022-08-17T23:00:48.487Z,41.60
2022-08-17T23:03:22.469Z,41.60
2022-08-17T23:06:07.919Z,41.60
2022-08-17T23:08:48.215Z,41.60
2022-08-17T23:11:14.452Z,41.60
2022-08-17T23:13:40.609Z,41.60
2022-08-17T23:16:06.703Z,41.60
2022-08-17T23:18:32.862Z,41.60
2022-08-17T23:20:59.370Z,41.60
2022-08-17T23:23:25.937Z,41.70
2022-08-17T23:25:52.083Z,41.60
2022-08-17T23:28:18.261Z,41.60
2022-08-17T23:30:47.651Z,41.70
2022-08-17T23:33:34.515Z,41.60
2022-08-17T23:36:01.108Z,41.60
2022-08-17T23:38:27.476Z,41.60
2022-08-17T23:40:54.939Z,41.60
2022-08-17T23:43:25.305Z,41.70
2022-08-17T23:45:55.491Z,41.70
2022-08-17T23:48:35.210Z,41.70
2022-08-17T23:51:33.967Z,41.70
2022-08-17T23:54:11.857Z,41.70
2022-08-17T23:56:47.669Z,41.70
2022-08-17T23:59:15.426Z,41.70
